createdAt,value
2018-12-19T00:00:26.768Z,0.10
2018-12-19T00:02:55.196Z,0.10
2018-12-19T00:05:23.679Z,0.10
2018-12-19T00:07:52.023Z,0.10
2018-12-19T00:10:20.370Z,0.00
2018-12-19T00:12:48.812Z,0.00
2018-12-19T00:15:17.198Z,0.00
2018-12-19T00:17:45.694Z,0.00
2018-12-19T00:20:14.107Z,0.00
2018-12-19T00:22:42.407Z,0.00
2018-12-19T00:25:11.071Z,0.00
2018-12-19T00:27:39.831Z,0.00
2018-12-19T00:30:08.312Z,0.00
2018-12-19T00:32:36.892Z,-0.10
2018-12-19T00:35:05.893Z,-0.10
2018-12-19T00:37:34.674Z,-0.10
2018-12-19T00:40:03.202Z,-0.10
2018-12-19T00:42:31.601Z,-0.10
2018-12-19T00:44:59.897Z,-0.10
2018-12-19T00:47:28.459Z,-0.10
2018-12-19T00:49:56.835Z,-0.10
2018-12-19T00:52:25.237Z,-0.10
2018-12-19T00:54:53.564Z,-0.10
2018-12-19T00:57:21.774Z,-0.10
2018-12-19T00:59:50.160Z,-0.20
2018-12-19T01:02:18.445Z,-0.20
2018-12-19T01:04:48.251Z,-0.20
2018-12-19T01:07:16.981Z,-0.10
2018-12-19T01:09:45.377Z,-0.20
2018-12-19T01:12:14.729Z,-0.20
2018-12-19T01:14:43.003Z,-0.20
2018-12-19T01:17:11.389Z,-0.20
2018-12-19T01:19:39.743Z,-0.20
2018-12-19T01:22:08.206Z,-0.20
2018-12-19T01:24:36.636Z,-0.20
2018-12-19T01:27:05.300Z,-0.10
2018-12-19T01:29:35.630Z,-0.20
2018-12-19T01:32:04.300Z,-0.20
2018-12-19T01:34:32.748Z,-0.20
2018-12-19T01:37:01.064Z,-0.10
2018-12-19T01:39:29.392Z,-0.10
2018-12-19T01:41:57.830Z,-0.20
2018-12-19T01:44:26.202Z,-0.20
2018-12-19T01:46:54.583Z,-0.20
2018-12-19T01:49:23.038Z,-0.20
2018-12-19T01:51:51.339Z,-0.20
2018-12-19T01:54:19.818Z,-0.20
2018-12-19T01:56:48.267Z,-0.10
2018-12-19T01:59:16.724Z,-0.10
2018-12-19T02:01:45.168Z,-0.10
2018-12-19T02:04:13.588Z,-0.10
2018-12-19T02:06:41.913Z,-0.20
2018-12-19T02:09:10.370Z,-0.10
2018-12-19T02:11:38.745Z,-0.20
2018-12-19T02:14:07.152Z,-0.10
2018-12-19T02:16:35.532Z,-0.10
2018-12-19T02:19:03.910Z,-0.10
2018-12-19T02:21:32.313Z,-0.20
2018-12-19T02:24:00.844Z,-0.20
2018-12-19T02:26:29.169Z,-0.20
2018-12-19T02:28:57.488Z,-0.20
2018-12-19T02:31:25.705Z,-0.20
2018-12-19T02:33:54.063Z,-0.20
2018-12-19T02:36:22.444Z,-0.20
2018-12-19T02:38:50.712Z,-0.20
2018-12-19T02:41:19.041Z,-0.20
2018-12-19T02:43:47.400Z,-0.20
2018-12-19T02:46:15.734Z,-0.20
2018-12-19T02:48:44.127Z,-0.30
2018-12-19T02:51:12.605Z,-0.30
2018-12-19T02:53:41.211Z,-0.30
2018-12-19T02:56:09.665Z,-0.30
2018-12-19T02:58:38.716Z,-0.30
2018-12-19T03:01:07.074Z,-0.30
2018-12-19T03:03:35.565Z,-0.30
2018-12-19T03:06:04.069Z,-0.30
2018-12-19T03:08:32.552Z,-0.30
2018-12-19T03:11:01.267Z,-0.30
2018-12-19T03:13:31.590Z,-0.30
2018-12-19T03:16:00.004Z,-0.30
2018-12-19T03:18:28.379Z,-0.30
2018-12-19T03:20:56.757Z,-0.30
2018-12-19T03:23:25.011Z,-0.30
2018-12-19T03:25:53.519Z,-0.30
2018-12-19T03:28:21.839Z,-0.30
2018-12-19T03:30:50.172Z,-0.30
2018-12-19T03:33:22.743Z,-0.30
2018-12-19T03:35:51.045Z,-0.30
2018-12-19T03:38:24.245Z,-0.30
2018-12-19T03:40:52.952Z,-0.20
2018-12-19T03:43:21.388Z,-0.30
2018-12-19T03:45:49.642Z,-0.30
2018-12-19T03:48:23.236Z,-0.30
2018-12-19T03:50:51.730Z,-0.30
2018-12-19T03:53:21.104Z,-0.30
2018-12-19T03:55:49.368Z,-0.30
2018-12-19T03:58:17.590Z,-0.20
2018-12-19T04:00:45.899Z,-0.20
2018-12-19T04:03:14.105Z,-0.20
2018-12-19T04:05:42.343Z,-0.30
2018-12-19T04:08:10.581Z,-0.30
2018-12-19T04:10:38.872Z,-0.30
2018-12-19T04:19:53.214Z,-0.20
2018-12-19T04:22:21.491Z,-0.30
2018-12-19T04:24:49.751Z,-0.30
2018-12-19T04:27:18.033Z,-0.20
2018-12-19T04:29:46.706Z,-0.20
2018-12-19T04:32:15.177Z,-0.20
2018-12-19T04:34:43.481Z,-0.20
2018-12-19T04:37:11.831Z,-0.20
2018-12-19T04:39:40.064Z,-0.20
2018-12-19T04:42:08.981Z,-0.10
2018-12-19T04:44:37.247Z,-0.10
2018-12-19T04:47:05.655Z,-0.10
2018-12-19T04:49:33.951Z,-0.10
2018-12-19T04:52:02.125Z,0.00
2018-12-19T04:54:30.391Z,-0.10
2018-12-19T04:56:58.634Z,0.00
2018-12-19T04:59:26.847Z,0.00
2018-12-19T05:01:55.196Z,0.00
2018-12-19T05:04:23.569Z,0.10
2018-12-19T05:06:51.908Z,0.10
2018-12-19T05:09:20.106Z,0.10
2018-12-19T05:11:48.398Z,0.10
2018-12-19T05:14:17.018Z,0.10
2018-12-19T05:16:45.266Z,0.10
2018-12-19T05:19:13.468Z,0.20
2018-12-19T05:21:41.642Z,0.20
2018-12-19T05:24:09.878Z,0.20
2018-12-19T05:26:38.184Z,0.20
2018-12-19T05:29:06.444Z,0.30
2018-12-19T05:31:34.860Z,0.30
2018-12-19T05:34:03.134Z,0.30
2018-12-19T05:36:31.459Z,0.40
2018-12-19T05:38:59.762Z,0.40
2018-12-19T05:41:28.090Z,0.40
2018-12-19T05:43:56.426Z,0.50
2018-12-19T05:46:24.747Z,0.50
2018-12-19T05:48:53.023Z,0.50
2018-12-19T05:51:21.363Z,0.50
2018-12-19T05:53:49.573Z,0.50
2018-12-19T05:56:18.124Z,0.50
2018-12-19T05:58:46.464Z,0.50
2018-12-19T06:01:14.873Z,0.50
2018-12-19T06:03:43.147Z,0.50
2018-12-19T06:06:11.570Z,0.50
2018-12-19T06:08:39.829Z,0.60
2018-12-19T06:11:08.171Z,0.60
2018-12-19T06:13:36.509Z,0.60
2018-12-19T06:16:04.868Z,0.60
2018-12-19T06:18:33.492Z,0.60
2018-12-19T06:21:01.868Z,0.60
2018-12-19T06:23:30.282Z,0.60
2018-12-19T06:25:59.596Z,0.60
2018-12-19T06:28:28.303Z,0.60
2018-12-19T06:30:56.596Z,0.60
2018-12-19T06:33:24.943Z,0.60
2018-12-19T06:35:53.172Z,0.60
2018-12-19T06:38:21.491Z,0.60
2018-12-19T06:40:49.993Z,0.60
2018-12-19T06:43:18.230Z,0.60
2018-12-19T06:45:46.392Z,0.60
2018-12-19T06:48:14.879Z,0.60
2018-12-19T06:50:43.285Z,0.60
2018-12-19T06:53:11.603Z,0.60
2018-12-19T06:55:39.981Z,0.60
2018-12-19T06:58:08.423Z,0.60
2018-12-19T07:00:36.699Z,0.60
2018-12-19T07:03:04.957Z,0.60
2018-12-19T07:05:33.524Z,0.60
2018-12-19T07:08:01.798Z,0.60
2018-12-19T07:10:30.057Z,0.60
2018-12-19T07:12:58.217Z,0.50
2018-12-19T07:15:26.543Z,0.50
2018-12-19T07:17:54.995Z,0.50
2018-12-19T07:20:23.465Z,0.60
2018-12-19T07:22:51.775Z,0.60
2018-12-19T07:25:20.079Z,0.60
2018-12-19T07:27:48.347Z,0.60
2018-12-19T07:30:16.623Z,0.70
2018-12-19T07:32:44.909Z,0.70
2018-12-19T07:35:13.181Z,0.70
2018-12-19T07:37:41.459Z,0.80
2018-12-19T07:40:09.806Z,0.80
2018-12-19T07:42:38.065Z,0.80
2018-12-19T07:45:06.403Z,0.80
2018-12-19T07:47:34.719Z,0.80
2018-12-19T07:50:03.055Z,0.80
2018-12-19T07:52:31.349Z,0.80
2018-12-19T07:54:59.771Z,0.80
2018-12-19T07:57:28.036Z,0.80
2018-12-19T07:59:56.311Z,0.80
2018-12-19T08:02:24.622Z,0.80
2018-12-19T08:04:53.051Z,0.90
2018-12-19T08:07:21.317Z,0.90
2018-12-19T08:09:49.699Z,0.90
2018-12-19T08:12:18.096Z,0.90
2018-12-19T08:14:46.413Z,0.90
2018-12-19T08:17:14.737Z,1.00
2018-12-19T08:19:42.973Z,1.00
2018-12-19T08:22:11.229Z,1.00
2018-12-19T08:24:39.408Z,1.00
2018-12-19T08:27:08.633Z,1.00
2018-12-19T08:29:37.041Z,1.00
2018-12-19T08:32:05.343Z,1.00
2018-12-19T08:34:33.505Z,1.00
2018-12-19T08:37:01.998Z,1.10
2018-12-19T08:39:30.483Z,1.10
2018-12-19T08:41:58.830Z,1.10
2018-12-19T08:44:27.144Z,1.10
2018-12-19T08:46:55.415Z,1.10
2018-12-19T08:49:23.718Z,1.10
2018-12-19T08:51:52.086Z,1.20
2018-12-19T08:54:20.422Z,1.20
2018-12-19T08:56:48.679Z,1.20
2018-12-19T08:59:17.010Z,1.20
2018-12-19T09:01:45.210Z,1.20
2018-12-19T09:04:13.403Z,1.30
2018-12-19T09:06:55.212Z,1.30
2018-12-19T09:09:23.431Z,1.30
2018-12-19T09:11:51.604Z,1.30
2018-12-19T09:14:19.864Z,1.40
2018-12-19T09:16:48.202Z,1.40
2018-12-19T09:19:16.494Z,1.50
2018-12-19T09:21:44.757Z,1.50
2018-12-19T09:24:13.036Z,1.50
2018-12-19T09:26:41.325Z,1.50
2018-12-19T09:29:09.902Z,1.40
2018-12-19T09:31:39.482Z,1.50
2018-12-19T09:34:07.737Z,1.60
2018-12-19T09:36:36.012Z,1.60
2018-12-19T09:39:06.189Z,1.60
2018-12-19T09:41:34.538Z,1.60
2018-12-19T09:44:02.883Z,1.60
2018-12-19T09:46:31.117Z,1.60
2018-12-19T09:49:00.073Z,1.60
2018-12-19T09:51:28.622Z,1.70
2018-12-19T09:53:57.037Z,1.70
2018-12-19T09:59:13.262Z,1.70
2018-12-19T10:01:42.149Z,1.80
2018-12-19T10:04:10.558Z,1.80
2018-12-19T10:06:38.775Z,1.80
2018-12-19T10:09:14.541Z,1.90
2018-12-19T10:11:38.200Z,2.00
2018-12-19T10:14:06.429Z,2.00
2018-12-19T10:16:34.756Z,2.00
2018-12-19T10:19:03.091Z,2.00
2018-12-19T10:21:32.672Z,2.00
2018-12-19T10:24:00.898Z,2.00
2018-12-19T10:26:29.122Z,2.10
2018-12-19T10:28:57.324Z,2.10
2018-12-19T10:31:25.756Z,2.20
2018-12-19T10:33:53.974Z,2.20
2018-12-19T10:36:26.488Z,2.10
2018-12-19T10:38:55.058Z,2.10
2018-12-19T10:41:25.626Z,2.20
2018-12-19T10:43:53.850Z,2.20
2018-12-19T10:46:22.060Z,2.20
2018-12-19T10:48:50.270Z,2.20
2018-12-19T10:51:18.534Z,2.20
2018-12-19T10:53:46.824Z,2.20
2018-12-19T10:56:15.036Z,2.30
2018-12-19T10:58:43.414Z,2.30
2018-12-19T11:01:11.711Z,2.30
2018-12-19T11:03:39.946Z,2.40
2018-12-19T11:06:08.237Z,2.50
2018-12-19T11:08:36.471Z,2.50
2018-12-19T11:11:04.971Z,2.60
2018-12-19T11:13:33.246Z,2.60
2018-12-19T11:16:01.716Z,2.70
2018-12-19T11:18:30.388Z,2.80
2018-12-19T11:20:58.786Z,2.80
2018-12-19T11:23:27.119Z,2.80
2018-12-19T11:25:55.389Z,2.90
2018-12-19T11:28:23.728Z,2.80
2018-12-19T11:30:52.148Z,2.80
2018-12-19T11:33:20.340Z,2.90
2018-12-19T11:35:48.548Z,2.90
2018-12-19T11:38:16.963Z,2.80
2018-12-19T11:40:45.479Z,2.90
2018-12-19T11:43:13.689Z,2.80
2018-12-19T11:45:42.006Z,2.80
2018-12-19T11:48:10.213Z,2.80
2018-12-19T11:50:38.491Z,2.80
2018-12-19T11:53:06.831Z,2.70
2018-12-19T11:55:35.092Z,2.80
2018-12-19T11:58:03.589Z,2.80
2018-12-19T12:00:31.853Z,2.90
2018-12-19T12:03:00.139Z,2.90
2018-12-19T12:05:28.519Z,2.90
2018-12-19T12:07:56.763Z,2.80
2018-12-19T12:10:25.021Z,2.90
2018-12-19T12:12:53.274Z,2.90
2018-12-19T12:15:21.658Z,3.00
2018-12-19T12:17:50.047Z,3.00
2018-12-19T12:20:18.301Z,3.00
2018-12-19T12:22:46.634Z,3.00
2018-12-19T12:25:14.865Z,3.00
2018-12-19T12:30:28.705Z,3.10
2018-12-19T12:32:56.924Z,3.00
2018-12-19T12:35:25.115Z,3.10
2018-12-19T12:37:53.490Z,3.10
2018-12-19T12:40:21.706Z,3.10
2018-12-19T12:42:49.899Z,3.10
2018-12-19T12:45:18.204Z,3.20
2018-12-19T12:47:46.466Z,3.10
2018-12-19T12:50:14.839Z,3.10
2018-12-19T12:52:43.075Z,3.20
2018-12-19T12:55:11.362Z,3.20
2018-12-19T12:57:39.678Z,3.20
2018-12-19T13:00:08.096Z,3.20
2018-12-19T13:02:36.384Z,3.30
2018-12-19T13:05:05.134Z,3.30
2018-12-19T13:07:33.376Z,3.30
2018-12-19T13:10:01.654Z,3.30
2018-12-19T13:12:29.926Z,3.30
2018-12-19T13:14:58.173Z,3.20
2018-12-19T13:17:26.371Z,3.30
2018-12-19T13:22:36.894Z,3.20
2018-12-19T13:27:44.391Z,3.30
2018-12-19T13:30:12.661Z,3.20
2018-12-19T13:32:40.837Z,3.20
2018-12-19T13:35:09.014Z,3.20
2018-12-19T13:37:37.304Z,3.20
2018-12-19T13:40:05.712Z,3.30
2018-12-19T13:42:34.000Z,3.30
2018-12-19T13:45:02.308Z,3.40
2018-12-19T13:47:30.624Z,3.30
2018-12-19T13:49:58.856Z,3.40
2018-12-19T13:52:27.190Z,3.40
2018-12-19T13:54:55.608Z,3.40
2018-12-19T13:57:23.828Z,3.40
2018-12-19T13:59:52.093Z,3.30
2018-12-19T14:02:20.482Z,3.30
2018-12-19T14:04:49.336Z,3.30
2018-12-19T14:07:17.647Z,3.30
2018-12-19T14:09:45.991Z,3.20
2018-12-19T14:12:14.243Z,3.10
2018-12-19T14:14:42.497Z,3.10
2018-12-19T14:17:10.735Z,3.20
2018-12-19T14:19:38.997Z,3.10
2018-12-19T14:22:07.392Z,3.10
2018-12-19T14:24:35.575Z,3.00
2018-12-19T14:27:04.011Z,3.10
2018-12-19T14:29:32.232Z,3.10
2018-12-19T14:32:00.459Z,3.00
2018-12-19T14:34:28.739Z,3.00
2018-12-19T14:36:57.007Z,3.00
2018-12-19T14:39:25.299Z,3.00
2018-12-19T14:41:53.561Z,3.00
2018-12-19T14:44:21.721Z,2.90
2018-12-19T14:46:49.946Z,2.90
2018-12-19T14:49:18.292Z,2.90
2018-12-19T14:51:46.619Z,2.80
2018-12-19T14:54:15.063Z,2.80
2018-12-19T14:56:43.324Z,2.80
2018-12-19T14:59:11.641Z,2.80
2018-12-19T15:01:40.063Z,2.80
2018-12-19T15:04:08.697Z,2.80
2018-12-19T15:06:36.983Z,2.70
2018-12-19T15:09:06.797Z,2.80
2018-12-19T15:11:35.063Z,2.80
2018-12-19T15:14:03.496Z,2.80
2018-12-19T15:16:31.829Z,2.80
2018-12-19T15:19:00.287Z,2.80
2018-12-19T15:21:28.757Z,2.90
2018-12-19T15:23:57.275Z,2.90
2018-12-19T15:26:25.505Z,2.90
2018-12-19T15:28:53.893Z,2.90
2018-12-19T15:31:22.237Z,2.90
2018-12-19T15:33:50.637Z,2.90
2018-12-19T15:36:19.351Z,2.90
2018-12-19T15:38:47.678Z,2.90
2018-12-19T15:41:15.911Z,3.00
2018-12-19T15:43:44.317Z,3.00
2018-12-19T15:46:12.668Z,3.00
2018-12-19T15:48:40.848Z,3.00
2018-12-19T15:51:09.083Z,3.00
2018-12-19T15:53:37.361Z,3.00
2018-12-19T15:56:05.649Z,3.00
2018-12-19T15:58:33.945Z,3.10
2018-12-19T16:01:02.201Z,3.00
2018-12-19T16:03:30.645Z,3.10
2018-12-19T16:05:58.931Z,3.10
2018-12-19T16:08:27.667Z,3.20
2018-12-19T16:10:56.088Z,3.20
2018-12-19T16:13:24.306Z,3.30
2018-12-19T16:15:52.535Z,3.30
2018-12-19T16:18:20.860Z,3.20
2018-12-19T16:20:49.294Z,3.20
2018-12-19T16:23:17.677Z,3.20
2018-12-19T16:25:45.975Z,3.20
2018-12-19T16:28:14.256Z,3.20
2018-12-19T16:30:42.639Z,3.20
2018-12-19T16:33:11.011Z,3.20
2018-12-19T16:35:39.321Z,3.20
2018-12-19T16:38:07.750Z,3.20
2018-12-19T16:40:35.997Z,3.20
2018-12-19T16:43:04.438Z,3.20
2018-12-19T16:45:32.708Z,3.20
2018-12-19T16:48:01.361Z,3.20
2018-12-19T16:50:29.676Z,3.20
2018-12-19T16:52:58.107Z,3.10
2018-12-19T16:55:26.413Z,3.10
2018-12-19T16:57:54.595Z,3.10
2018-12-19T17:00:22.806Z,3.20
2018-12-19T17:02:51.829Z,3.20
2018-12-19T17:05:20.206Z,3.20
2018-12-19T17:07:50.121Z,3.20
2018-12-19T17:10:18.565Z,3.20
2018-12-19T17:12:52.560Z,3.20
2018-12-19T17:15:17.407Z,3.20
2018-12-19T17:17:45.795Z,3.10
2018-12-19T17:20:14.067Z,3.10
2018-12-19T17:22:42.478Z,3.10
2018-12-19T17:25:10.726Z,3.20
2018-12-19T17:27:39.032Z,3.20
2018-12-19T17:30:07.396Z,3.20
2018-12-19T17:32:35.792Z,3.20
2018-12-19T17:35:04.264Z,3.20
2018-12-19T17:37:32.994Z,3.20
2018-12-19T17:40:01.520Z,3.20
2018-12-19T17:42:29.765Z,3.20
2018-12-19T17:44:58.032Z,3.20
2018-12-19T17:47:26.284Z,3.20
2018-12-19T17:49:54.530Z,3.10
2018-12-19T17:52:22.821Z,3.10
2018-12-19T17:54:51.174Z,3.10
2018-12-19T17:57:19.453Z,3.10
2018-12-19T17:59:47.868Z,3.10
2018-12-19T18:02:16.169Z,3.10
2018-12-19T18:04:44.458Z,3.00
2018-12-19T18:07:12.781Z,3.00
2018-12-19T18:09:41.035Z,3.00
2018-12-19T18:12:09.295Z,3.00
2018-12-19T18:14:37.685Z,3.00
2018-12-19T18:17:06.012Z,3.10
2018-12-19T18:19:34.511Z,3.10
2018-12-19T18:22:02.853Z,3.00
2018-12-19T18:24:31.048Z,3.00
2018-12-19T18:26:59.269Z,3.10
2018-12-19T18:29:27.626Z,3.10
2018-12-19T18:31:55.905Z,3.10
2018-12-19T18:34:24.101Z,3.20
2018-12-19T18:36:52.433Z,3.10
2018-12-19T18:39:26.182Z,3.10
2018-12-19T18:41:51.140Z,3.10
2018-12-19T18:44:19.452Z,3.10
2018-12-19T18:46:47.729Z,3.10
2018-12-19T18:49:15.939Z,3.10
2018-12-19T18:51:44.142Z,3.10
2018-12-19T18:54:12.484Z,3.10
2018-12-19T18:56:40.853Z,3.20
2018-12-19T18:59:09.245Z,3.20
2018-12-19T19:01:37.826Z,3.20
2018-12-19T19:04:06.277Z,3.20
2018-12-19T19:06:35.099Z,3.20
2018-12-19T19:09:05.295Z,3.20
2018-12-19T19:11:33.557Z,3.10
2018-12-19T19:14:01.795Z,3.10
2018-12-19T19:16:30.751Z,3.10
2018-12-19T19:18:59.703Z,3.10
2018-12-19T19:21:27.992Z,3.20
2018-12-19T19:23:56.265Z,3.10
2018-12-19T19:26:24.575Z,3.10
2018-12-19T19:28:53.907Z,3.10
2018-12-19T19:31:22.235Z,3.10
2018-12-19T19:33:51.710Z,3.10
2018-12-19T19:36:20.092Z,3.10
2018-12-19T19:38:48.448Z,3.20
2018-12-19T19:41:16.760Z,3.20
2018-12-19T19:43:45.232Z,3.20
2018-12-19T19:46:14.684Z,3.30
2018-12-19T19:48:43.028Z,3.40
2018-12-19T19:51:21.413Z,3.40
2018-12-19T19:53:49.698Z,3.40
2018-12-19T19:56:18.094Z,3.50
2018-12-19T19:58:46.462Z,3.50
2018-12-19T20:01:30.823Z,3.50
2018-12-19T20:03:59.410Z,3.50
2018-12-19T20:06:27.702Z,3.50
2018-12-19T20:08:56.052Z,3.50
2018-12-19T20:11:27.857Z,3.40
2018-12-19T20:13:56.096Z,3.40
2018-12-19T20:16:24.412Z,3.30
2018-12-19T20:18:52.778Z,3.30
2018-12-19T20:21:23.629Z,3.30
2018-12-19T20:23:52.859Z,3.30
2018-12-19T20:26:21.173Z,3.40
2018-12-19T20:28:49.820Z,3.30
2018-12-19T20:31:25.646Z,3.30
2018-12-19T20:33:54.001Z,3.30
2018-12-19T20:36:22.354Z,3.30
2018-12-19T20:38:50.854Z,3.30
2018-12-19T20:41:19.250Z,3.30
2018-12-19T20:43:47.719Z,3.30
2018-12-19T20:46:16.096Z,3.30
2018-12-19T20:48:44.442Z,3.30
2018-12-19T20:51:12.928Z,3.30
2018-12-19T20:53:41.409Z,3.30
2018-12-19T20:56:09.931Z,3.30
2018-12-19T20:58:38.332Z,3.30
2018-12-19T21:01:07.126Z,3.30
2018-12-19T21:03:35.510Z,3.30
2018-12-19T21:06:04.012Z,3.30
2018-12-19T21:08:32.504Z,3.30
2018-12-19T21:11:00.986Z,3.30
2018-12-19T21:13:29.464Z,3.30
2018-12-19T21:15:57.810Z,3.30
2018-12-19T21:18:31.721Z,3.30
2018-12-19T21:21:00.008Z,3.30
2018-12-19T21:23:28.412Z,3.20
2018-12-19T21:25:56.977Z,3.30
2018-12-19T21:28:25.300Z,3.20
2018-12-19T21:30:53.625Z,3.30
2018-12-19T21:33:21.887Z,3.20
2018-12-19T21:35:50.283Z,3.30
2018-12-19T21:38:18.576Z,3.20
2018-12-19T21:40:47.203Z,3.20
2018-12-19T21:43:15.520Z,3.20
2018-12-19T21:45:43.803Z,3.20
2018-12-19T21:48:22.865Z,3.20
2018-12-19T21:50:51.461Z,3.20
2018-12-19T21:53:20.107Z,3.20
2018-12-19T21:55:49.585Z,3.20
2018-12-19T21:58:17.965Z,3.20
2018-12-19T22:00:46.420Z,3.20
2018-12-19T22:03:14.846Z,3.20
2018-12-19T22:05:43.436Z,3.20
2018-12-19T22:08:11.905Z,3.20
2018-12-19T22:10:40.378Z,3.30
2018-12-19T22:13:08.801Z,3.20
2018-12-19T22:15:37.289Z,3.20
2018-12-19T22:18:11.309Z,3.20
2018-12-19T22:20:39.733Z,3.20
2018-12-19T22:23:08.243Z,3.20
2018-12-19T22:25:36.659Z,3.20
2018-12-19T22:28:05.149Z,3.20
2018-12-19T22:30:33.529Z,3.30
2018-12-19T22:33:01.843Z,3.30
2018-12-19T22:35:30.283Z,3.30
2018-12-19T22:37:58.867Z,3.30
2018-12-19T22:40:27.400Z,3.20
2018-12-19T22:42:55.742Z,3.30
2018-12-19T22:45:24.274Z,3.20
2018-12-19T22:47:52.900Z,3.20
2018-12-19T22:50:21.304Z,3.20
2018-12-19T22:52:49.827Z,3.20
2018-12-19T22:55:18.329Z,3.30
2018-12-19T22:57:46.724Z,3.30
2018-12-19T23:00:17.066Z,3.30
2018-12-19T23:02:55.245Z,3.30
2018-12-19T23:05:29.023Z,3.30
2018-12-19T23:07:57.447Z,3.30
2018-12-19T23:10:25.855Z,3.40
2018-12-19T23:12:54.414Z,3.40
2018-12-19T23:15:24.662Z,3.30
2018-12-19T23:17:55.064Z,3.30
2018-12-19T23:20:23.417Z,3.30
2018-12-19T23:22:51.756Z,3.30
2018-12-19T23:25:20.203Z,3.30
2018-12-19T23:27:48.645Z,3.30
2018-12-19T23:30:17.507Z,3.30
2018-12-19T23:32:45.913Z,3.30
2018-12-19T23:35:14.479Z,3.30
2018-12-19T23:37:42.914Z,3.40
2018-12-19T23:40:11.537Z,3.30
2018-12-19T23:42:39.935Z,3.40
2018-12-19T23:45:08.421Z,3.30
2018-12-19T23:47:37.047Z,3.40
2018-12-19T23:50:05.666Z,3.30
2018-12-19T23:52:34.035Z,3.30
2018-12-19T23:55:02.661Z,3.40
2018-12-19T23:57:31.208Z,3.40
2018-12-19T23:59:59.732Z,3.30
